Terminal Aerodrome Forecast
Issued by NWS

Home | Current Version | Previous Version | Text Only | Print | Product List | Glossary On
Versions: 1 2 3 4 5 6 7 8 9 10 11 12 13 14 15 16
000
FTUS41 KPBZ 040520
TAFBVI
TAF
KBVI 040520Z 0406/0506 VRB03KT 5SM -SHRA BR SCT007 OVC020
     FM040800 VRB03KT 3SM -SHRA BR OVC007
     FM041300 32005KT 5SM BR BKN015
     FM041500 33008KT P6SM BKN025
     FM041700 32008KT P6SM SCT040
      AMD NOT SKED=

USA.gov is the U.S. government's official web portal to all federal, state and local government web resources and services.